Scotland, Maryland
Current Conditions -  °F | °C
As of 10:53 AM on Wednesday 28 Jan 2015 (Local Time) from KNUI Reporting Station
Clear Clear  
Wind Chill: 23°   Ceiling: Unl
Heat Index: 31°   Visibility: 10mi
Dew Point:   Wind: 9mph
Humidity: 35%   Direction: 320°NW
Pressure: 30.21"   Gusts: NA
Location:  38.09°N, 76.36°W
Report Text: KNUI 281553Z AUTO 32008KT 290V360 10SM CLR M01/M14 A3021 RMK AO2 SLP230 T10061144
Loading
Personal Weather Stations






























Interactive Weather Map New forecast layout! Learn more

10-Day Weather Forecast

Advertisements
Track Severe Weather on mobile